Terminal Aerodrome Forecast
Issued by NWS Cleveland, OH

Home | Current Version | Previous Version | Text Only | Print | Product List | Glossary On
Versions: 1 2 3 4 5 6 7 8 9 10 11 12 13 14 15 16 17 18 19
000
FTUS41 KCLE 280529
TAFCAK
TAF
KCAK 280529Z 2806/2906 26004KT 5SM BR SCT030 OVC060
      TEMPO 2806/2810 6SM BR BKN030
     FM281000 32003KT 4SM BR SCT150
     FM281400 03005KT P6SM SCT030
     FM281800 05008KT P6SM SCT040
     FM290000 06005KT P6SM SKC=

USA.gov is the U.S. government's official web portal to all federal, state and local government web resources and services.